sensor_id;sensor_type;location;lat;lon;timestamp;P1;durP1;ratioP1;P2;durP2;ratioP2
30096;SDS011;16915;51.466;3.610;2023-01-10T00:01:57;14.15;;;2.35;;
30096;SDS011;16915;51.466;3.610;2023-01-10T00:04:22;11.52;;;2.25;;
30096;SDS011;16915;51.466;3.610;2023-01-10T00:06:50;13.07;;;2.03;;
30096;SDS011;16915;51.466;3.610;2023-01-10T00:09:16;21.25;;;2.70;;
30096;SDS011;16915;51.466;3.610;2023-01-10T00:11:42;15.73;;;2.38;;
30096;SDS011;16915;51.466;3.610;2023-01-10T00:14:26;11.57;;;1.90;;
30096;SDS011;16915;51.466;3.610;2023-01-10T00:16:53;19.17;;;1.98;;
30096;SDS011;16915;51.466;3.610;2023-01-10T00:19:19;11.48;;;2.22;;
30096;SDS011;16915;51.466;3.610;2023-01-10T00:21:44;12.50;;;1.95;;
30096;SDS011;16915;51.466;3.610;2023-01-10T00:24:10;16.27;;;2.70;;
30096;SDS011;16915;51.466;3.610;2023-01-10T00:26:47;15.77;;;2.05;;
30096;SDS011;16915;51.466;3.610;2023-01-10T00:29:24;22.45;;;2.33;;
30096;SDS011;16915;51.466;3.610;2023-01-10T00:32:01;12.70;;;2.60;;
30096;SDS011;16915;51.466;3.610;2023-01-10T00:34:26;13.75;;;2.47;;
30096;SDS011;16915;51.466;3.610;2023-01-10T00:36:52;17.35;;;2.53;;
30096;SDS011;16915;51.466;3.610;2023-01-10T00:39:17;17.05;;;2.03;;
30096;SDS011;16915;51.466;3.610;2023-01-10T00:41:44;17.52;;;3.00;;
30096;SDS011;16915;51.466;3.610;2023-01-10T00:44:29;16.30;;;2.08;;
30096;SDS011;16915;51.466;3.610;2023-01-10T00:46:54;15.80;;;2.08;;
30096;SDS011;16915;51.466;3.610;2023-01-10T00:49:20;18.85;;;2.17;;
30096;SDS011;16915;51.466;3.610;2023-01-10T00:51:46;15.15;;;2.70;;
30096;SDS011;16915;51.466;3.610;2023-01-10T00:54:12;21.33;;;2.25;;
30096;SDS011;16915;51.466;3.610;2023-01-10T00:56:38;13.82;;;1.58;;
30096;SDS011;16915;51.466;3.610;2023-01-10T00:59:04;16.58;;;2.50;;
30096;SDS011;16915;51.466;3.610;2023-01-10T01:01:30;17.50;;;2.33;;
30096;SDS011;16915;51.466;3.610;2023-01-10T01:03:56;14.95;;;2.50;;
30096;SDS011;16915;51.466;3.610;2023-01-10T01:06:23;18.70;;;2.50;;
30096;SDS011;16915;51.466;3.610;2023-01-10T01:08:49;15.90;;;2.65;;
30096;SDS011;16915;51.466;3.610;2023-01-10T01:11:15;19.20;;;2.65;;
30096;SDS011;16915;51.466;3.610;2023-01-10T01:13:40;16.27;;;2.70;;
30096;SDS011;16915;51.466;3.610;2023-01-10T01:16:06;17.05;;;2.25;;
30096;SDS011;16915;51.466;3.610;2023-01-10T01:18:32;22.67;;;2.58;;
30096;SDS011;16915;51.466;3.610;2023-01-10T01:20:58;18.50;;;2.63;;
30096;SDS011;16915;51.466;3.610;2023-01-10T01:23:27;12.00;;;2.67;;
30096;SDS011;16915;51.466;3.610;2023-01-10T01:25:54;19.58;;;2.47;;
30096;SDS011;16915;51.466;3.610;2023-01-10T01:28:20;18.95;;;2.97;;
30096;SDS011;16915;51.466;3.610;2023-01-10T01:30:46;24.48;;;2.75;;
30096;SDS011;16915;51.466;3.610;2023-01-10T01:33:12;26.17;;;2.90;;
30096;SDS011;16915;51.466;3.610;2023-01-10T01:35:41;16.80;;;2.35;;
30096;SDS011;16915;51.466;3.610;2023-01-10T01:38:08;20.75;;;2.20;;
30096;SDS011;16915;51.466;3.610;2023-01-10T01:40:34;24.30;;;2.65;;
30096;SDS011;16915;51.466;3.610;2023-01-10T01:43:02;18.23;;;3.13;;
30096;SDS011;16915;51.466;3.610;2023-01-10T01:45:35;23.40;;;2.95;;
30096;SDS011;16915;51.466;3.610;2023-01-10T01:48:05;17.08;;;2.58;;
30096;SDS011;16915;51.466;3.610;2023-01-10T01:50:44;23.00;;;2.85;;
30096;SDS011;16915;51.466;3.610;2023-01-10T01:53:14;19.45;;;2.42;;
30096;SDS011;16915;51.466;3.610;2023-01-10T01:55:58;24.63;;;3.15;;
30096;SDS011;16915;51.466;3.610;2023-01-10T01:58:29;17.35;;;2.70;;
30096;SDS011;16915;51.466;3.610;2023-01-10T02:01:03;18.88;;;3.22;;
30096;SDS011;16915;51.466;3.610;2023-01-10T02:03:29;18.92;;;3.17;;
30096;SDS011;16915;51.466;3.610;2023-01-10T02:05:55;18.52;;;2.33;;
30096;SDS011;16915;51.466;3.610;2023-01-10T02:08:21;21.27;;;2.72;;
30096;SDS011;16915;51.466;3.610;2023-01-10T02:10:52;22.25;;;4.30;;
30096;SDS011;16915;51.466;3.610;2023-01-10T02:13:23;22.83;;;2.90;;
30096;SDS011;16915;51.466;3.610;2023-01-10T02:15:50;21.52;;;3.85;;
30096;SDS011;16915;51.466;3.610;2023-01-10T02:18:16;21.63;;;2.78;;
30096;SDS011;16915;51.466;3.610;2023-01-10T02:34:33;20.17;;;3.05;;
30096;SDS011;16915;51.466;3.610;2023-01-10T02:37:22;26.85;;;2.95;;
30096;SDS011;16915;51.466;3.610;2023-01-10T02:39:57;17.48;;;2.45;;
30096;SDS011;16915;51.466;3.610;2023-01-10T02:45:09;23.45;;;2.75;;
30096;SDS011;16915;51.466;3.610;2023-01-10T02:47:40;30.63;;;2.95;;
30096;SDS011;16915;51.466;3.610;2023-01-10T02:50:22;15.30;;;2.38;;
30096;SDS011;16915;51.466;3.610;2023-01-10T03:12:27;22.50;;;3.00;;
30096;SDS011;16915;51.466;3.610;2023-01-10T03:15:05;23.80;;;2.88;;
30096;SDS011;16915;51.466;3.610;2023-01-10T03:17:34;21.45;;;3.00;;
30096;SDS011;16915;51.466;3.610;2023-01-10T03:20:03;27.30;;;3.22;;
30096;SDS011;16915;51.466;3.610;2023-01-10T03:22:30;20.67;;;2.72;;
30096;SDS011;16915;51.466;3.610;2023-01-10T03:24:59;15.60;;;2.47;;
30096;SDS011;16915;51.466;3.610;2023-01-10T03:32:57;15.90;;;2.35;;
30096;SDS011;16915;51.466;3.610;2023-01-10T03:35:28;29.77;;;3.33;;
30096;SDS011;16915;51.466;3.610;2023-01-10T03:38:06;15.90;;;2.55;;
30096;SDS011;16915;51.466;3.610;2023-01-10T03:40:57;23.05;;;3.53;;
30096;SDS011;16915;51.466;3.610;2023-01-10T03:43:31;19.75;;;2.88;;
30096;SDS011;16915;51.466;3.610;2023-01-10T03:46:51;19.42;;;3.22;;
30096;SDS011;16915;51.466;3.610;2023-01-10T03:49:21;13.45;;;2.55;;
30096;SDS011;16915;51.466;3.610;2023-01-10T03:51:49;17.30;;;2.70;;
30096;SDS011;16915;51.466;3.610;2023-01-10T03:54:16;25.02;;;2.92;;
30096;SDS011;16915;51.466;3.610;2023-01-10T03:56:43;17.83;;;3.30;;
30096;SDS011;16915;51.466;3.610;2023-01-10T03:59:09;24.83;;;3.65;;
30096;SDS011;16915;51.466;3.610;2023-01-10T04:01:35;24.38;;;2.40;;
30096;SDS011;16915;51.466;3.610;2023-01-10T04:04:01;16.08;;;1.95;;
30096;SDS011;16915;51.466;3.610;2023-01-10T04:06:28;23.38;;;2.80;;
30096;SDS011;16915;51.466;3.610;2023-01-10T04:08:54;25.05;;;3.15;;
30096;SDS011;16915;51.466;3.610;2023-01-10T04:11:19;21.33;;;2.78;;
30096;SDS011;16915;51.466;3.610;2023-01-10T04:13:45;24.30;;;3.00;;
30096;SDS011;16915;51.466;3.610;2023-01-10T04:16:10;22.65;;;2.55;;
30096;SDS011;16915;51.466;3.610;2023-01-10T04:18:36;24.23;;;2.25;;
30096;SDS011;16915;51.466;3.610;2023-01-10T04:21:01;20.33;;;3.63;;
30096;SDS011;16915;51.466;3.610;2023-01-10T04:23:27;32.47;;;3.25;;
30096;SDS011;16915;51.466;3.610;2023-01-10T04:25:53;15.05;;;2.03;;
30096;SDS011;16915;51.466;3.610;2023-01-10T04:28:18;15.80;;;2.42;;
30096;SDS011;16915;51.466;3.610;2023-01-10T04:30:44;25.80;;;3.15;;
30096;SDS011;16915;51.466;3.610;2023-01-10T04:33:09;13.43;;;1.95;;
30096;SDS011;16915;51.466;3.610;2023-01-10T04:35:36;16.95;;;2.05;;
30096;SDS011;16915;51.466;3.610;2023-01-10T04:38:02;18.13;;;2.65;;
30096;SDS011;16915;51.466;3.610;2023-01-10T04:40:27;21.33;;;2.88;;
30096;SDS011;16915;51.466;3.610;2023-01-10T04:42:53;22.50;;;2.38;;
30096;SDS011;16915;51.466;3.610;2023-01-10T04:45:19;21.48;;;2.83;;
30096;SDS011;16915;51.466;3.610;2023-01-10T04:47:49;24.05;;;2.50;;
30096;SDS011;16915;51.466;3.610;2023-01-10T04:50:15;23.27;;;2.60;;
30096;SDS011;16915;51.466;3.610;2023-01-10T04:52:41;18.65;;;2.55;;
30096;SDS011;16915;51.466;3.610;2023-01-10T04:55:07;17.95;;;3.13;;
30096;SDS011;16915;51.466;3.610;2023-01-10T04:57:34;27.02;;;3.15;;
30096;SDS011;16915;51.466;3.610;2023-01-10T04:59:59;25.58;;;2.83;;
30096;SDS011;16915;51.466;3.610;2023-01-10T05:02:25;22.95;;;3.30;;
30096;SDS011;16915;51.466;3.610;2023-01-10T05:04:50;17.65;;;2.90;;
30096;SDS011;16915;51.466;3.610;2023-01-10T05:07:16;32.05;;;2.92;;
30096;SDS011;16915;51.466;3.610;2023-01-10T05:09:41;25.35;;;2.65;;
30096;SDS011;16915;51.466;3.610;2023-01-10T05:12:07;19.85;;;2.63;;
30096;SDS011;16915;51.466;3.610;2023-01-10T05:14:33;14.10;;;2.17;;
30096;SDS011;16915;51.466;3.610;2023-01-10T05:16:58;19.80;;;2.95;;
30096;SDS011;16915;51.466;3.610;2023-01-10T05:19:24;14.85;;;3.15;;
30096;SDS011;16915;51.466;3.610;2023-01-10T05:21:50;27.67;;;3.25;;
30096;SDS011;16915;51.466;3.610;2023-01-10T05:24:16;21.27;;;2.55;;
30096;SDS011;16915;51.466;3.610;2023-01-10T05:26:42;24.83;;;3.08;;
30096;SDS011;16915;51.466;3.610;2023-01-10T05:29:10;16.83;;;2.95;;
30096;SDS011;16915;51.466;3.610;2023-01-10T05:31:36;23.25;;;3.58;;
30096;SDS011;16915;51.466;3.610;2023-01-10T05:34:02;17.23;;;2.35;;
30096;SDS011;16915;51.466;3.610;2023-01-10T05:36:27;16.80;;;2.58;;
30096;SDS011;16915;51.466;3.610;2023-01-10T05:38:53;18.80;;;4.53;;
30096;SDS011;16915;51.466;3.610;2023-01-10T05:41:19;25.58;;;3.30;;
30096;SDS011;16915;51.466;3.610;2023-01-10T05:43:44;14.90;;;2.83;;
30096;SDS011;16915;51.466;3.610;2023-01-10T05:46:10;22.23;;;2.63;;
30096;SDS011;16915;51.466;3.610;2023-01-10T05:48:36;12.10;;;2.20;;
30096;SDS011;16915;51.466;3.610;2023-01-10T05:51:02;11.32;;;2.63;;
30096;SDS011;16915;51.466;3.610;2023-01-10T05:53:28;14.82;;;2.45;;
30096;SDS011;16915;51.466;3.610;2023-01-10T05:55:54;17.70;;;3.25;;
30096;SDS011;16915;51.466;3.610;2023-01-10T05:58:24;21.60;;;4.53;;
30096;SDS011;16915;51.466;3.610;2023-01-10T06:00:50;17.65;;;3.08;;
30096;SDS011;16915;51.466;3.610;2023-01-10T06:03:16;19.70;;;2.58;;
30096;SDS011;16915;51.466;3.610;2023-01-10T06:05:42;26.65;;;2.92;;
30096;SDS011;16915;51.466;3.610;2023-01-10T06:08:08;22.85;;;3.75;;
30096;SDS011;16915;51.466;3.610;2023-01-10T06:10:33;35.20;;;3.00;;
30096;SDS011;16915;51.466;3.610;2023-01-10T06:12:59;29.10;;;3.15;;
30096;SDS011;16915;51.466;3.610;2023-01-10T06:15:24;29.58;;;3.20;;
30096;SDS011;16915;51.466;3.610;2023-01-10T06:17:50;18.88;;;2.80;;
30096;SDS011;16915;51.466;3.610;2023-01-10T06:20:16;23.90;;;2.80;;
30096;SDS011;16915;51.466;3.610;2023-01-10T06:22:42;23.08;;;3.03;;
30096;SDS011;16915;51.466;3.610;2023-01-10T06:25:08;22.83;;;2.45;;
30096;SDS011;16915;51.466;3.610;2023-01-10T06:27:35;33.20;;;3.42;;
30096;SDS011;16915;51.466;3.610;2023-01-10T06:30:06;25.15;;;3.03;;
30096;SDS011;16915;51.466;3.610;2023-01-10T06:32:33;21.30;;;3.35;;
30096;SDS011;16915;51.466;3.610;2023-01-10T06:34:59;31.17;;;4.63;;
30096;SDS011;16915;51.466;3.610;2023-01-10T06:37:24;19.80;;;2.63;;
30096;SDS011;16915;51.466;3.610;2023-01-10T06:39:50;28.33;;;3.63;;
30096;SDS011;16915;51.466;3.610;2023-01-10T06:42:16;28.40;;;4.20;;
30096;SDS011;16915;51.466;3.610;2023-01-10T06:44:41;21.65;;;2.97;;
30096;SDS011;16915;51.466;3.610;2023-01-10T06:47:07;28.92;;;3.30;;
30096;SDS011;16915;51.466;3.610;2023-01-10T06:49:32;25.67;;;3.65;;
30096;SDS011;16915;51.466;3.610;2023-01-10T06:51:58;21.70;;;3.38;;
30096;SDS011;16915;51.466;3.610;2023-01-10T06:54:24;24.48;;;3.35;;
30096;SDS011;16915;51.466;3.610;2023-01-10T06:56:49;20.55;;;2.83;;
30096;SDS011;16915;51.466;3.610;2023-01-10T06:59:15;23.27;;;3.58;;
30096;SDS011;16915;51.466;3.610;2023-01-10T07:01:40;26.63;;;2.88;;
30096;SDS011;16915;51.466;3.610;2023-01-10T07:04:06;26.95;;;3.67;;
30096;SDS011;16915;51.466;3.610;2023-01-10T07:06:35;21.23;;;2.30;;
30096;SDS011;16915;51.466;3.610;2023-01-10T07:09:01;26.33;;;2.75;;
30096;SDS011;16915;51.466;3.610;2023-01-10T07:11:27;20.83;;;2.88;;
30096;SDS011;16915;51.466;3.610;2023-01-10T07:13:53;34.47;;;4.05;;
30096;SDS011;16915;51.466;3.610;2023-01-10T07:16:19;32.60;;;3.38;;
30096;SDS011;16915;51.466;3.610;2023-01-10T07:18:45;28.88;;;3.10;;
30096;SDS011;16915;51.466;3.610;2023-01-10T07:21:10;19.33;;;2.70;;
30096;SDS011;16915;51.466;3.610;2023-01-10T07:23:36;22.58;;;2.85;;
30096;SDS011;16915;51.466;3.610;2023-01-10T07:26:03;24.88;;;3.38;;
30096;SDS011;16915;51.466;3.610;2023-01-10T07:28:30;20.50;;;3.55;;
30096;SDS011;16915;51.466;3.610;2023-01-10T07:30:58;11.98;;;2.88;;
30096;SDS011;16915;51.466;3.610;2023-01-10T07:33:25;22.70;;;2.95;;
30096;SDS011;16915;51.466;3.610;2023-01-10T07:35:51;20.70;;;2.80;;
30096;SDS011;16915;51.466;3.610;2023-01-10T07:38:17;20.45;;;3.50;;
30096;SDS011;16915;51.466;3.610;2023-01-10T07:40:42;19.50;;;3.03;;
30096;SDS011;16915;51.466;3.610;2023-01-10T07:43:08;22.30;;;3.50;;
30096;SDS011;16915;51.466;3.610;2023-01-10T07:45:34;19.63;;;3.03;;
30096;SDS011;16915;51.466;3.610;2023-01-10T07:48:00;17.58;;;3.22;;
30096;SDS011;16915;51.466;3.610;2023-01-10T07:50:29;17.02;;;3.13;;
30096;SDS011;16915;51.466;3.610;2023-01-10T07:53:00;17.40;;;2.67;;
30096;SDS011;16915;51.466;3.610;2023-01-10T07:55:28;33.30;;;3.78;;
30096;SDS011;16915;51.466;3.610;2023-01-10T07:57:54;14.95;;;2.65;;
30096;SDS011;16915;51.466;3.610;2023-01-10T08:00:20;20.65;;;2.60;;
30096;SDS011;16915;51.466;3.610;2023-01-10T08:02:46;25.77;;;3.20;;
30096;SDS011;16915;51.466;3.610;2023-01-10T08:05:12;18.52;;;2.85;;
30096;SDS011;16915;51.466;3.610;2023-01-10T08:07:38;18.92;;;2.47;;
30096;SDS011;16915;51.466;3.610;2023-01-10T08:10:04;14.85;;;2.30;;
30096;SDS011;16915;51.466;3.610;2023-01-10T08:12:31;23.30;;;3.42;;
30096;SDS011;16915;51.466;3.610;2023-01-10T08:14:57;20.30;;;3.00;;
30096;SDS011;16915;51.466;3.610;2023-01-10T08:17:23;15.70;;;3.03;;
30096;SDS011;16915;51.466;3.610;2023-01-10T08:19:48;21.30;;;3.17;;
30096;SDS011;16915;51.466;3.610;2023-01-10T08:22:14;21.38;;;2.97;;
30096;SDS011;16915;51.466;3.610;2023-01-10T08:24:40;18.75;;;2.47;;
30096;SDS011;16915;51.466;3.610;2023-01-10T08:27:05;22.52;;;3.40;;
30096;SDS011;16915;51.466;3.610;2023-01-10T08:29:31;18.90;;;2.97;;
30096;SDS011;16915;51.466;3.610;2023-01-10T08:31:57;25.73;;;3.35;;
30096;SDS011;16915;51.466;3.610;2023-01-10T08:34:23;14.38;;;3.05;;
30096;SDS011;16915;51.466;3.610;2023-01-10T08:36:49;16.80;;;2.92;;
30096;SDS011;16915;51.466;3.610;2023-01-10T08:39:16;26.15;;;3.80;;
30096;SDS011;16915;51.466;3.610;2023-01-10T08:41:41;22.13;;;3.13;;
30096;SDS011;16915;51.466;3.610;2023-01-10T08:44:07;17.83;;;3.03;;
30096;SDS011;16915;51.466;3.610;2023-01-10T08:46:35;20.00;;;3.30;;
30096;SDS011;16915;51.466;3.610;2023-01-10T08:49:02;23.45;;;3.47;;
30096;SDS011;16915;51.466;3.610;2023-01-10T08:51:27;22.98;;;5.72;;
30096;SDS011;16915;51.466;3.610;2023-01-10T08:53:53;26.77;;;7.00;;
30096;SDS011;16915;51.466;3.610;2023-01-10T08:56:19;30.13;;;7.55;;
30096;SDS011;16915;51.466;3.610;2023-01-10T08:58:44;28.23;;;6.30;;
30096;SDS011;16915;51.466;3.610;2023-01-10T09:01:10;27.60;;;4.50;;
30096;SDS011;16915;51.466;3.610;2023-01-10T09:03:37;29.77;;;4.18;;
30096;SDS011;16915;51.466;3.610;2023-01-10T09:06:04;27.65;;;3.83;;
30096;SDS011;16915;51.466;3.610;2023-01-10T09:08:30;13.75;;;3.45;;
30096;SDS011;16915;51.466;3.610;2023-01-10T09:10:59;22.20;;;2.92;;
30096;SDS011;16915;51.466;3.610;2023-01-10T09:13:25;14.77;;;3.35;;
30096;SDS011;16915;51.466;3.610;2023-01-10T09:15:51;21.42;;;4.32;;
30096;SDS011;16915;51.466;3.610;2023-01-10T09:18:17;23.77;;;3.88;;
30096;SDS011;16915;51.466;3.610;2023-01-10T09:20:43;11.25;;;2.60;;
30096;SDS011;16915;51.466;3.610;2023-01-10T09:23:10;18.48;;;3.45;;
30096;SDS011;16915;51.466;3.610;2023-01-10T09:25:41;19.42;;;2.95;;
30096;SDS011;16915;51.466;3.610;2023-01-10T09:28:08;21.52;;;2.92;;
30096;SDS011;16915;51.466;3.610;2023-01-10T09:30:33;14.13;;;2.58;;
30096;SDS011;16915;51.466;3.610;2023-01-10T09:32:59;17.30;;;3.35;;
30096;SDS011;16915;51.466;3.610;2023-01-10T09:35:26;22.05;;;3.25;;
30096;SDS011;16915;51.466;3.610;2023-01-10T09:37:53;19.00;;;3.10;;
30096;SDS011;16915;51.466;3.610;2023-01-10T09:40:23;18.70;;;3.33;;
30096;SDS011;16915;51.466;3.610;2023-01-10T09:43:02;10.57;;;2.40;;
30096;SDS011;16915;51.466;3.610;2023-01-10T09:45:57;19.88;;;3.60;;
30096;SDS011;16915;51.466;3.610;2023-01-10T09:53:57;18.33;;;2.38;;
30096;SDS011;16915;51.466;3.610;2023-01-10T09:56:26;31.90;;;3.03;;
30096;SDS011;16915;51.466;3.610;2023-01-10T09:58:53;16.95;;;3.00;;
30096;SDS011;16915;51.466;3.610;2023-01-10T10:01:31;26.85;;;2.55;;
30096;SDS011;16915;51.466;3.610;2023-01-10T10:06:49;17.67;;;2.22;;
30096;SDS011;16915;51.466;3.610;2023-01-10T10:09:16;8.07;;;2.35;;
30096;SDS011;16915;51.466;3.610;2023-01-10T10:17:20;10.90;;;2.08;;
30096;SDS011;16915;51.466;3.610;2023-01-10T10:35:52;19.95;;;3.00;;
30096;SDS011;16915;51.466;3.610;2023-01-10T10:38:25;28.20;;;3.22;;
30096;SDS011;16915;51.466;3.610;2023-01-10T10:40:55;15.55;;;2.92;;
30096;SDS011;16915;51.466;3.610;2023-01-10T10:43:23;18.38;;;3.70;;
30096;SDS011;16915;51.466;3.610;2023-01-10T10:46:00;21.80;;;2.83;;
30096;SDS011;16915;51.466;3.610;2023-01-10T10:48:38;21.75;;;3.53;;
30096;SDS011;16915;51.466;3.610;2023-01-10T10:51:27;18.70;;;3.03;;
30096;SDS011;16915;51.466;3.610;2023-01-10T10:54:03;11.73;;;2.40;;
30096;SDS011;16915;51.466;3.610;2023-01-10T10:56:30;13.43;;;2.55;;
30096;SDS011;16915;51.466;3.610;2023-01-10T10:58:57;12.02;;;2.33;;
30096;SDS011;16915;51.466;3.610;2023-01-10T11:01:23;21.63;;;3.35;;
30096;SDS011;16915;51.466;3.610;2023-01-10T11:03:57;21.58;;;3.80;;
30096;SDS011;16915;51.466;3.610;2023-01-10T11:06:26;16.60;;;3.25;;
30096;SDS011;16915;51.466;3.610;2023-01-10T11:08:57;13.32;;;2.72;;
30096;SDS011;16915;51.466;3.610;2023-01-10T11:11:36;19.00;;;3.47;;
30096;SDS011;16915;51.466;3.610;2023-01-10T11:14:08;20.50;;;3.67;;
30096;SDS011;16915;51.466;3.610;2023-01-10T11:16:35;13.18;;;2.70;;
30096;SDS011;16915;51.466;3.610;2023-01-10T11:19:09;18.40;;;3.25;;
30096;SDS011;16915;51.466;3.610;2023-01-10T11:22:01;11.63;;;2.08;;
30096;SDS011;16915;51.466;3.610;2023-01-10T11:27:14;23.33;;;3.40;;
30096;SDS011;16915;51.466;3.610;2023-01-10T11:29:42;11.45;;;2.40;;
30096;SDS011;16915;51.466;3.610;2023-01-10T11:32:15;18.92;;;2.90;;
30096;SDS011;16915;51.466;3.610;2023-01-10T11:34:55;23.52;;;3.30;;
30096;SDS011;16915;51.466;3.610;2023-01-10T11:37:25;15.10;;;2.83;;
30096;SDS011;16915;51.466;3.610;2023-01-10T11:40:07;15.95;;;2.90;;
30096;SDS011;16915;51.466;3.610;2023-01-10T11:42:48;9.73;;;1.83;;
30096;SDS011;16915;51.466;3.610;2023-01-10T11:48:27;13.57;;;2.22;;
30096;SDS011;16915;51.466;3.610;2023-01-10T11:50:30;18.90;;;3.28;;
30096;SDS011;16915;51.466;3.610;2023-01-10T11:52:58;17.23;;;3.03;;
30096;SDS011;16915;51.466;3.610;2023-01-10T11:55:28;10.82;;;2.65;;
30096;SDS011;16915;51.466;3.610;2023-01-10T12:00:30;13.52;;;2.90;;
30096;SDS011;16915;51.466;3.610;2023-01-10T12:02:58;19.23;;;3.22;;
30096;SDS011;16915;51.466;3.610;2023-01-10T12:05:25;16.85;;;2.67;;
30096;SDS011;16915;51.466;3.610;2023-01-10T12:07:55;16.08;;;2.15;;
30096;SDS011;16915;51.466;3.610;2023-01-10T12:10:33;17.30;;;3.05;;
30096;SDS011;16915;51.466;3.610;2023-01-10T12:13:06;16.15;;;2.72;;
30096;SDS011;16915;51.466;3.610;2023-01-10T12:15:39;13.10;;;2.28;;
30096;SDS011;16915;51.466;3.610;2023-01-10T12:18:05;18.33;;;3.05;;
30096;SDS011;16915;51.466;3.610;2023-01-10T12:20:38;13.82;;;2.47;;
30096;SDS011;16915;51.466;3.610;2023-01-10T12:23:11;16.63;;;2.65;;
30096;SDS011;16915;51.466;3.610;2023-01-10T12:28:19;16.17;;;2.83;;
30096;SDS011;16915;51.466;3.610;2023-01-10T12:30:48;18.55;;;2.47;;
30096;SDS011;16915;51.466;3.610;2023-01-10T12:33:27;22.23;;;2.97;;
30096;SDS011;16915;51.466;3.610;2023-01-10T12:39:06;17.13;;;2.90;;
30096;SDS011;16915;51.466;3.610;2023-01-10T12:50:33;15.52;;;2.60;;
30096;SDS011;16915;51.466;3.610;2023-01-10T12:55:37;12.40;;;2.47;;
30096;SDS011;16915;51.466;3.610;2023-01-10T12:58:12;15.45;;;2.90;;
30096;SDS011;16915;51.466;3.610;2023-01-10T13:00:51;13.73;;;2.80;;
30096;SDS011;16915;51.466;3.610;2023-01-10T13:03:21;10.77;;;2.50;;
30096;SDS011;16915;51.466;3.610;2023-01-10T13:05:53;17.23;;;2.47;;
30096;SDS011;16915;51.466;3.610;2023-01-10T13:08:22;9.75;;;2.15;;
30096;SDS011;16915;51.466;3.610;2023-01-10T13:10:52;20.05;;;3.40;;
30096;SDS011;16915;51.466;3.610;2023-01-10T13:13:25;15.63;;;2.60;;
30096;SDS011;16915;51.466;3.610;2023-01-10T13:16:08;14.68;;;2.40;;
30096;SDS011;16915;51.466;3.610;2023-01-10T13:21:26;9.02;;;2.42;;
30096;SDS011;16915;51.466;3.610;2023-01-10T13:23:56;13.50;;;2.08;;
30096;SDS011;16915;51.466;3.610;2023-01-10T13:26:25;11.77;;;2.40;;
30096;SDS011;16915;51.466;3.610;2023-01-10T13:28:57;7.30;;;1.75;;
30096;SDS011;16915;51.466;3.610;2023-01-10T13:31:27;10.93;;;2.10;;
30096;SDS011;16915;51.466;3.610;2023-01-10T13:34:02;7.22;;;2.50;;
30096;SDS011;16915;51.466;3.610;2023-01-10T13:36:35;6.35;;;1.52;;
30096;SDS011;16915;51.466;3.610;2023-01-10T13:39:04;13.02;;;2.78;;
30096;SDS011;16915;51.466;3.610;2023-01-10T13:48:00;13.23;;;1.90;;
30096;SDS011;16915;51.466;3.610;2023-01-10T13:52:50;7.57;;;2.00;;
30096;SDS011;16915;51.466;3.610;2023-01-10T13:56:26;6.38;;;2.20;;
30096;SDS011;16915;51.466;3.610;2023-01-10T14:01:22;10.45;;;2.40;;
30096;SDS011;16915;51.466;3.610;2023-01-10T14:04:07;8.73;;;2.20;;
30096;SDS011;16915;51.466;3.610;2023-01-10T14:07:02;6.15;;;2.97;;
30096;SDS011;16915;51.466;3.610;2023-01-10T14:09:49;5.90;;;1.92;;
30096;SDS011;16915;51.466;3.610;2023-01-10T14:12:18;7.57;;;2.33;;
30096;SDS011;16915;51.466;3.610;2023-01-10T14:14:55;7.10;;;2.13;;
30096;SDS011;16915;51.466;3.610;2023-01-10T14:17:29;4.28;;;2.40;;
30096;SDS011;16915;51.466;3.610;2023-01-10T14:20:16;5.70;;;2.60;;
30096;SDS011;16915;51.466;3.610;2023-01-10T14:23:01;9.98;;;2.38;;
30096;SDS011;16915;51.466;3.610;2023-01-10T14:25:43;3.20;;;1.95;;
30096;SDS011;16915;51.466;3.610;2023-01-10T14:28:15;6.75;;;2.08;;
30096;SDS011;16915;51.466;3.610;2023-01-10T14:31:07;5.75;;;1.95;;
30096;SDS011;16915;51.466;3.610;2023-01-10T14:33:40;5.38;;;1.90;;
30096;SDS011;16915;51.466;3.610;2023-01-10T14:36:29;4.15;;;1.92;;
30096;SDS011;16915;51.466;3.610;2023-01-10T14:38:56;4.57;;;2.30;;
30096;SDS011;16915;51.466;3.610;2023-01-10T14:41:29;6.43;;;1.77;;
30096;SDS011;16915;51.466;3.610;2023-01-10T14:49:47;9.05;;;2.60;;
30096;SDS011;16915;51.466;3.610;2023-01-10T14:52:21;6.03;;;2.08;;
30096;SDS011;16915;51.466;3.610;2023-01-10T14:55:03;4.13;;;1.98;;
30096;SDS011;16915;51.466;3.610;2023-01-10T14:57:38;7.15;;;1.70;;
30096;SDS011;16915;51.466;3.610;2023-01-10T15:00:05;2.55;;;1.70;;
30096;SDS011;16915;51.466;3.610;2023-01-10T15:02:31;4.70;;;2.25;;
30096;SDS011;16915;51.466;3.610;2023-01-10T15:04:58;4.80;;;2.20;;
30096;SDS011;16915;51.466;3.610;2023-01-10T15:07:45;2.92;;;1.70;;
30096;SDS011;16915;51.466;3.610;2023-01-10T15:10:19;5.90;;;2.42;;
30096;SDS011;16915;51.466;3.610;2023-01-10T15:12:46;4.60;;;2.45;;
30096;SDS011;16915;51.466;3.610;2023-01-10T15:15:14;3.67;;;2.63;;
30096;SDS011;16915;51.466;3.610;2023-01-10T15:17:42;4.97;;;2.70;;
30096;SDS011;16915;51.466;3.610;2023-01-10T15:20:13;5.57;;;2.22;;
30096;SDS011;16915;51.466;3.610;2023-01-10T15:22:40;4.20;;;2.57;;
30096;SDS011;16915;51.466;3.610;2023-01-10T15:27:46;4.00;;;3.10;;
30096;SDS011;16915;51.466;3.610;2023-01-10T15:30:18;3.65;;;3.28;;
30096;SDS011;16915;51.466;3.610;2023-01-10T15:32:50;6.93;;;3.70;;
30096;SDS011;16915;51.466;3.610;2023-01-10T15:35:22;8.15;;;4.20;;
30096;SDS011;16915;51.466;3.610;2023-01-10T15:37:55;6.47;;;3.97;;
30096;SDS011;16915;51.466;3.610;2023-01-10T15:40:30;6.22;;;3.60;;
30096;SDS011;16915;51.466;3.610;2023-01-10T15:45:42;4.25;;;3.83;;
30096;SDS011;16915;51.466;3.610;2023-01-10T15:51:00;5.93;;;4.63;;
30096;SDS011;16915;51.466;3.610;2023-01-10T15:58:55;6.10;;;5.30;;
30096;SDS011;16915;51.466;3.610;2023-01-10T16:01:22;6.65;;;4.57;;
30096;SDS011;16915;51.466;3.610;2023-01-10T16:03:49;6.93;;;4.90;;
30096;SDS011;16915;51.466;3.610;2023-01-10T16:06:33;7.90;;;4.78;;
30096;SDS011;16915;51.466;3.610;2023-01-10T16:09:01;9.73;;;5.88;;
30096;SDS011;16915;51.466;3.610;2023-01-10T16:14:22;12.73;;;6.00;;
30096;SDS011;16915;51.466;3.610;2023-01-10T16:16:49;6.45;;;5.60;;
30096;SDS011;16915;51.466;3.610;2023-01-10T16:19:15;9.02;;;6.53;;
30096;SDS011;16915;51.466;3.610;2023-01-10T16:21:41;9.48;;;6.25;;
30096;SDS011;16915;51.466;3.610;2023-01-10T16:24:21;11.75;;;6.22;;
30096;SDS011;16915;51.466;3.610;2023-01-10T16:26:50;9.75;;;6.60;;
30096;SDS011;16915;51.466;3.610;2023-01-10T16:29:16;9.82;;;7.15;;
30096;SDS011;16915;51.466;3.610;2023-01-10T16:31:44;9.43;;;7.45;;
30096;SDS011;16915;51.466;3.610;2023-01-10T16:34:10;15.85;;;6.90;;
30096;SDS011;16915;51.466;3.610;2023-01-10T16:36:36;13.50;;;7.50;;
30096;SDS011;16915;51.466;3.610;2023-01-10T16:39:21;10.27;;;6.78;;
30096;SDS011;16915;51.466;3.610;2023-01-10T16:41:47;11.27;;;7.60;;
30096;SDS011;16915;51.466;3.610;2023-01-10T16:44:32;13.52;;;8.60;;
30096;SDS011;16915;51.466;3.610;2023-01-10T16:46:58;13.98;;;7.55;;
30096;SDS011;16915;51.466;3.610;2023-01-10T16:49:24;21.73;;;8.63;;
30096;SDS011;16915;51.466;3.610;2023-01-10T16:51:50;12.25;;;7.68;;
30096;SDS011;16915;51.466;3.610;2023-01-10T16:54:18;11.43;;;8.13;;
30096;SDS011;16915;51.466;3.610;2023-01-10T16:56:45;15.20;;;8.32;;
30096;SDS011;16915;51.466;3.610;2023-01-10T16:59:12;11.15;;;7.88;;
30096;SDS011;16915;51.466;3.610;2023-01-10T17:01:40;16.88;;;8.40;;
30096;SDS011;16915;51.466;3.610;2023-01-10T17:04:11;21.48;;;7.90;;